createdAt,value
2023-03-07T00:00:50.453Z,99.90
2023-03-07T00:03:53.273Z,99.90
2023-03-07T00:06:57.310Z,99.90
2023-03-07T00:09:59.671Z,99.90
2023-03-07T00:13:01.928Z,99.90
2023-03-07T00:16:09.592Z,99.90
2023-03-07T00:19:11.798Z,99.90
2023-03-07T00:22:14.727Z,99.90
2023-03-07T00:25:18.055Z,99.90
2023-03-07T00:28:20.229Z,99.90
2023-03-07T00:31:24.252Z,99.90
2023-03-07T00:34:26.685Z,99.90
2023-03-07T00:37:32.030Z,99.90
2023-03-07T00:40:34.940Z,99.90
2023-03-07T00:43:40.338Z,99.90
2023-03-07T00:46:42.626Z,99.90
2023-03-07T00:49:44.895Z,99.90
2023-03-07T00:52:47.019Z,99.90
2023-03-07T00:56:00.332Z,99.90
2023-03-07T00:59:03.156Z,99.90
2023-03-07T01:02:06.452Z,99.90
2023-03-07T01:05:09.005Z,99.90
2023-03-07T01:08:11.378Z,99.90
2023-03-07T01:11:14.427Z,99.90
2023-03-07T01:14:16.777Z,99.90
2023-03-07T01:17:19.072Z,99.90
2023-03-07T01:20:22.255Z,99.90
2023-03-07T01:23:24.496Z,99.90
2023-03-07T01:26:29.710Z,99.90
2023-03-07T01:29:33.034Z,99.90
2023-03-07T01:32:35.502Z,99.90
2023-03-07T01:35:41.339Z,99.90
2023-03-07T01:38:43.463Z,99.90
2023-03-07T01:41:46.793Z,99.90
2023-03-07T01:45:34.051Z,99.90
2023-03-07T01:48:36.587Z,99.90
2023-03-07T01:51:41.858Z,99.90
2023-03-07T01:54:49.291Z,99.90
2023-03-07T01:57:52.833Z,99.90
2023-03-07T02:00:57.560Z,99.90
2023-03-07T02:04:38.263Z,99.90
2023-03-07T02:07:49.276Z,99.90
2023-03-07T02:10:52.025Z,99.90
2023-03-07T02:13:54.328Z,99.90
2023-03-07T02:16:56.582Z,99.90
2023-03-07T02:20:26.255Z,99.90
2023-03-07T02:23:51.974Z,99.90
2023-03-07T02:26:54.179Z,99.90
2023-03-07T02:29:57.324Z,99.90
2023-03-07T02:32:59.527Z,99.90
2023-03-07T02:36:33.425Z,99.90
2023-03-07T02:39:36.240Z,99.90
2023-03-07T02:42:42.367Z,99.90
2023-03-07T02:45:44.541Z,99.90
2023-03-07T02:48:47.574Z,99.90
2023-03-07T02:51:49.873Z,99.90
2023-03-07T02:54:52.092Z,99.90
2023-03-07T02:57:54.217Z,99.90
2023-03-07T03:00:56.414Z,99.90
2023-03-07T03:03:58.711Z,99.90
2023-03-07T03:07:00.963Z,99.90
2023-03-07T03:10:03.810Z,99.90
2023-03-07T03:13:07.732Z,99.90
2023-03-07T03:16:09.920Z,99.90
2023-03-07T03:19:12.077Z,99.90
2023-03-07T03:22:14.344Z,99.90
2023-03-07T03:25:16.485Z,99.90
2023-03-07T03:28:18.706Z,99.90
2023-03-07T03:31:20.946Z,99.90
2023-03-07T03:34:23.358Z,99.90
2023-03-07T03:37:25.530Z,99.90
2023-03-07T03:40:27.933Z,99.90
2023-03-07T03:43:30.207Z,99.90
2023-03-07T03:46:32.498Z,99.90
2023-03-07T03:49:34.748Z,99.90
2023-03-07T03:52:37.260Z,99.90
2023-03-07T03:55:39.486Z,99.90
2023-03-07T03:58:41.682Z,99.90
2023-03-07T04:01:44.048Z,99.90
2023-03-07T04:04:46.265Z,99.90
2023-03-07T04:07:50.925Z,99.90
2023-03-07T04:10:54.368Z,99.90
2023-03-07T04:13:57.005Z,99.90
2023-03-07T04:16:59.209Z,99.90
2023-03-07T04:20:01.491Z,99.90
2023-03-07T04:23:03.800Z,99.90
2023-03-07T04:26:07.687Z,99.90
2023-03-07T04:29:10.591Z,99.90
2023-03-07T04:32:12.787Z,99.90
2023-03-07T04:35:14.946Z,99.90
2023-03-07T04:38:17.279Z,99.90
2023-03-07T04:41:22.003Z,99.90
2023-03-07T04:44:24.293Z,99.90
2023-03-07T04:47:26.737Z,99.90
2023-03-07T04:50:28.951Z,99.90
2023-03-07T04:53:31.216Z,99.90
2023-03-07T04:56:33.398Z,99.90
2023-03-07T04:59:39.262Z,99.90
2023-03-07T05:02:41.526Z,99.90
2023-03-07T05:05:43.758Z,99.90
2023-03-07T05:08:45.984Z,99.90
2023-03-07T05:11:48.080Z,99.90
2023-03-07T05:14:50.303Z,99.90
2023-03-07T05:17:52.965Z,99.90
2023-03-07T05:20:55.292Z,99.90
2023-03-07T05:23:57.631Z,99.90
2023-03-07T05:27:01.052Z,99.90
2023-03-07T05:30:03.954Z,99.90
2023-03-07T05:33:06.123Z,99.90
2023-03-07T05:36:08.682Z,99.90
2023-03-07T05:39:11.601Z,99.90
2023-03-07T05:42:16.421Z,99.90
2023-03-07T05:45:18.652Z,99.90
2023-03-07T05:48:21.011Z,99.90
2023-03-07T05:51:23.542Z,99.90
2023-03-07T05:54:26.405Z,99.90
2023-03-07T05:57:28.493Z,99.90
2023-03-07T06:00:31.051Z,99.90
2023-03-07T06:03:33.614Z,99.90
2023-03-07T06:06:36.057Z,99.90
2023-03-07T06:09:39.130Z,99.90
2023-03-07T06:12:42.855Z,99.90
2023-03-07T06:15:45.225Z,99.90
2023-03-07T06:18:47.666Z,99.90
2023-03-07T06:21:50.118Z,99.90
2023-03-07T06:24:52.368Z,99.90
2023-03-07T06:27:59.863Z,99.90
2023-03-07T06:31:02.214Z,99.90
2023-03-07T06:34:06.043Z,99.90
2023-03-07T06:37:08.371Z,99.90
2023-03-07T06:40:11.265Z,99.90
2023-03-07T06:43:16.748Z,99.90
2023-03-07T06:46:20.632Z,99.90
2023-03-07T06:49:23.041Z,99.90
2023-03-07T06:52:25.224Z,99.90
2023-03-07T06:55:27.451Z,99.90
2023-03-07T06:58:30.624Z,99.90
2023-03-07T07:01:32.952Z,99.90
2023-03-07T07:04:35.110Z,99.90
2023-03-07T07:07:37.309Z,99.90
2023-03-07T07:10:39.476Z,99.90
2023-03-07T07:13:41.732Z,99.90
2023-03-07T07:16:43.908Z,99.90
2023-03-07T07:19:46.159Z,99.90
2023-03-07T07:22:48.304Z,99.90
2023-03-07T07:25:50.439Z,99.90
2023-03-07T07:28:52.735Z,99.90
2023-03-07T07:31:55.226Z,99.90
2023-03-07T07:34:57.893Z,99.90
2023-03-07T07:38:00.041Z,99.90
2023-03-07T07:41:02.573Z,99.90
2023-03-07T07:44:04.817Z,99.90
2023-03-07T07:47:07.024Z,99.90
2023-03-07T07:50:09.872Z,99.90
2023-03-07T07:53:12.226Z,99.90
2023-03-07T07:56:14.908Z,99.90
2023-03-07T07:59:17.101Z,99.90
2023-03-07T08:02:19.341Z,99.90
2023-03-07T08:05:22.367Z,99.90
2023-03-07T08:08:24.527Z,99.90
2023-03-07T08:11:26.992Z,99.90
2023-03-07T08:14:29.228Z,99.20
2023-03-07T08:17:31.389Z,99.10
2023-03-07T08:20:33.990Z,97.80
2023-03-07T08:23:37.683Z,98.10
2023-03-07T08:26:39.877Z,96.40
2023-03-07T08:29:42.034Z,95.50
2023-03-07T08:32:44.300Z,96.90
2023-03-07T08:35:46.494Z,97.20
2023-03-07T08:38:52.498Z,97.90
2023-03-07T08:41:55.536Z,98.90
2023-03-07T08:44:57.764Z,98.90
2023-03-07T08:48:00.298Z,99.50
2023-03-07T08:51:08.995Z,99.90
2023-03-07T08:54:11.428Z,97.90
2023-03-07T08:57:13.693Z,97.00
2023-03-07T09:00:16.530Z,95.80
2023-03-07T09:03:18.767Z,94.60
2023-03-07T09:06:21.773Z,95.30
2023-03-07T09:09:23.967Z,96.10
2023-03-07T09:12:27.064Z,95.90
2023-03-07T09:15:29.421Z,93.20
2023-03-07T09:18:31.811Z,92.20
2023-03-07T09:21:34.113Z,91.30
2023-03-07T09:24:36.208Z,90.70
2023-03-07T09:27:38.440Z,91.80
2023-03-07T09:30:40.559Z,89.90
2023-03-07T09:33:46.525Z,85.00
2023-03-07T09:36:51.684Z,86.10
2023-03-07T09:39:53.807Z,79.80
2023-03-07T09:43:16.289Z,81.80
2023-03-07T09:47:04.763Z,76.60
2023-03-07T09:50:36.933Z,73.60
2023-03-07T09:54:03.121Z,75.10
2023-03-07T09:57:11.052Z,76.00
2023-03-07T10:00:43.025Z,77.90
2023-03-07T10:03:59.188Z,76.80
2023-03-07T10:07:04.196Z,77.20
2023-03-07T10:10:14.489Z,75.90
2023-03-07T10:13:53.963Z,74.30
2023-03-07T10:17:15.616Z,71.80
2023-03-07T10:20:26.736Z,73.20
2023-03-07T10:23:56.992Z,76.90
2023-03-07T10:27:13.481Z,76.60
2023-03-07T10:30:21.189Z,79.60
2023-03-07T10:33:23.598Z,80.70
2023-03-07T10:36:42.505Z,80.30
2023-03-07T10:39:55.312Z,76.40
2023-03-07T10:42:59.253Z,76.40
2023-03-07T10:46:23.659Z,75.40
2023-03-07T10:49:44.243Z,70.90
2023-03-07T10:52:53.780Z,72.50
2023-03-07T10:56:17.115Z,73.50
2023-03-07T10:59:25.948Z,74.80
2023-03-07T11:02:46.028Z,74.30
2023-03-07T11:05:50.296Z,75.60
2023-03-07T11:08:52.753Z,77.70
2023-03-07T11:12:12.200Z,79.50
2023-03-07T11:15:23.817Z,80.80
2023-03-07T11:18:31.972Z,82.10
2023-03-07T11:21:35.772Z,85.00
2023-03-07T11:24:40.153Z,86.30
2023-03-07T11:27:51.299Z,85.90
2023-03-07T11:31:14.395Z,88.70
2023-03-07T11:34:36.954Z,88.20
2023-03-07T11:37:44.973Z,88.40
2023-03-07T11:41:06.096Z,90.10
2023-03-07T11:44:35.156Z,87.50
2023-03-07T11:47:37.337Z,87.60
2023-03-07T11:50:43.066Z,83.30
2023-03-07T11:53:48.085Z,78.60
2023-03-07T11:56:56.538Z,80.50
2023-03-07T12:00:18.155Z,83.10
2023-03-07T12:03:39.094Z,83.50
2023-03-07T12:06:49.878Z,84.40
2023-03-07T12:10:25.724Z,87.90
2023-03-07T12:13:33.799Z,89.20
2023-03-07T12:17:00.322Z,90.30
2023-03-07T12:20:19.120Z,90.40
2023-03-07T12:23:33.948Z,91.00
2023-03-07T12:26:58.329Z,90.80
2023-03-07T12:30:05.403Z,91.60
2023-03-07T12:33:13.378Z,92.20
2023-03-07T12:36:46.551Z,91.80
2023-03-07T12:39:58.730Z,92.10
2023-03-07T12:43:22.369Z,92.70
2023-03-07T12:46:40.601Z,92.60
2023-03-07T12:49:50.070Z,92.90
2023-03-07T12:52:58.589Z,93.20
2023-03-07T12:56:39.319Z,93.20
2023-03-07T12:59:43.810Z,93.50
2023-03-07T13:03:06.883Z,93.20
2023-03-07T13:06:16.951Z,93.40
2023-03-07T13:09:26.135Z,93.80
2023-03-07T13:12:29.751Z,94.00
2023-03-07T13:15:38.082Z,93.80
2023-03-07T13:18:40.516Z,94.10
2023-03-07T13:21:42.702Z,94.60
2023-03-07T13:24:46.131Z,94.60
2023-03-07T13:27:49.525Z,94.20
2023-03-07T13:31:21.148Z,94.80
2023-03-07T13:34:46.924Z,94.70
2023-03-07T13:37:51.226Z,95.20
2023-03-07T13:40:58.678Z,96.00
2023-03-07T13:44:02.243Z,96.00
2023-03-07T13:47:05.418Z,96.20
2023-03-07T13:50:35.558Z,96.10
2023-03-07T13:53:45.669Z,96.50
2023-03-07T13:56:49.020Z,96.70
2023-03-07T13:59:51.727Z,96.30
2023-03-07T14:02:54.993Z,96.70
2023-03-07T14:06:08.202Z,96.90
2023-03-07T14:09:18.273Z,96.50
2023-03-07T14:13:09.528Z,96.50
2023-03-07T14:16:28.108Z,96.70
2023-03-07T14:19:45.489Z,97.10
2023-03-07T14:23:18.590Z,97.30
2023-03-07T14:26:23.230Z,97.50
2023-03-07T14:29:27.866Z,98.10
2023-03-07T14:32:31.821Z,97.90
2023-03-07T14:35:45.142Z,97.90
2023-03-07T14:38:49.940Z,97.90
2023-03-07T14:42:02.662Z,97.80
2023-03-07T14:45:21.581Z,97.90
2023-03-07T14:48:35.938Z,98.20
2023-03-07T14:51:41.685Z,98.50
2023-03-07T14:54:46.806Z,99.00
2023-03-07T14:57:53.248Z,98.60
2023-03-07T15:01:04.277Z,98.60
2023-03-07T15:04:29.475Z,99.10
2023-03-07T15:07:35.677Z,99.20
2023-03-07T15:10:47.154Z,99.40
2023-03-07T15:13:58.629Z,99.70
2023-03-07T15:17:17.087Z,99.90
2023-03-07T15:20:23.588Z,99.90
2023-03-07T15:23:29.286Z,99.90
2023-03-07T15:26:33.111Z,99.90
2023-03-07T15:29:35.302Z,99.90
2023-03-07T15:32:39.225Z,99.90
2023-03-07T15:35:42.231Z,99.90
2023-03-07T15:38:47.309Z,99.90
2023-03-07T15:42:19.849Z,99.90
2023-03-07T15:45:35.100Z,99.90
2023-03-07T15:48:49.667Z,99.90
2023-03-07T15:51:55.518Z,99.90
2023-03-07T15:54:59.332Z,99.90
2023-03-07T15:58:04.571Z,99.90
2023-03-07T16:01:23.392Z,99.90
2023-03-07T16:04:43.703Z,99.90
2023-03-07T16:07:46.298Z,99.90
2023-03-07T16:10:51.003Z,99.90
2023-03-07T16:13:53.204Z,99.90
2023-03-07T16:17:29.779Z,99.90
2023-03-07T16:20:32.000Z,99.90
2023-03-07T16:23:34.434Z,99.90
2023-03-07T16:26:37.026Z,99.90
2023-03-07T16:29:39.185Z,99.90
2023-03-07T16:32:41.791Z,99.90
2023-03-07T16:35:45.443Z,99.90
2023-03-07T16:38:47.912Z,99.90
2023-03-07T16:41:50.720Z,99.90
2023-03-07T16:44:52.942Z,99.90
2023-03-07T16:47:57.749Z,99.90
2023-03-07T16:51:00.043Z,99.90
2023-03-07T16:54:02.755Z,99.90
2023-03-07T16:57:07.136Z,99.90
2023-03-07T17:00:15.550Z,99.90
2023-03-07T17:03:18.577Z,99.90
2023-03-07T17:06:25.501Z,99.90
2023-03-07T17:09:33.583Z,99.90
2023-03-07T17:12:35.740Z,99.90
2023-03-07T17:15:38.361Z,99.90
2023-03-07T17:18:40.476Z,99.90
2023-03-07T17:21:43.683Z,99.90
2023-03-07T17:24:45.791Z,99.90
2023-03-07T17:27:52.952Z,99.90
2023-03-07T17:30:55.149Z,99.90
2023-03-07T17:33:57.327Z,99.90
2023-03-07T17:37:00.487Z,99.90
2023-03-07T17:40:06.013Z,99.90
2023-03-07T17:43:08.436Z,99.90
2023-03-07T17:46:11.904Z,99.90
2023-03-07T17:49:14.075Z,99.90
2023-03-07T17:52:16.302Z,99.90
2023-03-07T17:55:18.932Z,99.90
2023-03-07T17:58:21.098Z,99.90
2023-03-07T18:01:23.227Z,99.90
2023-03-07T18:04:26.017Z,99.90
2023-03-07T18:07:28.366Z,99.90
2023-03-07T18:10:30.845Z,99.90
2023-03-07T18:13:33.661Z,99.90
2023-03-07T18:16:35.841Z,99.90
2023-03-07T18:19:38.951Z,99.90
2023-03-07T18:22:41.919Z,99.90
2023-03-07T18:25:44.109Z,99.90
2023-03-07T18:28:47.758Z,99.90
2023-03-07T18:31:50.277Z,99.90
2023-03-07T18:34:55.582Z,99.90
2023-03-07T18:37:58.894Z,99.90
2023-03-07T18:41:25.236Z,99.90
2023-03-07T18:44:27.383Z,99.90
2023-03-07T18:47:29.503Z,99.90
2023-03-07T18:50:31.928Z,99.90
2023-03-07T18:53:35.303Z,99.90
2023-03-07T18:56:37.953Z,99.90
2023-03-07T18:59:40.241Z,99.90
2023-03-07T19:02:42.354Z,99.90
2023-03-07T19:05:49.507Z,99.90
2023-03-07T19:08:51.648Z,99.90
2023-03-07T19:11:54.910Z,99.90
2023-03-07T19:14:57.108Z,99.90
2023-03-07T19:17:59.449Z,99.90
2023-03-07T19:21:09.474Z,99.90
2023-03-07T19:24:12.171Z,99.90
2023-03-07T19:27:14.290Z,99.90
2023-03-07T19:30:19.152Z,99.90
2023-03-07T19:33:21.537Z,99.90
2023-03-07T19:36:29.417Z,99.90
2023-03-07T19:39:31.633Z,99.90
2023-03-07T19:42:34.027Z,99.90
2023-03-07T19:45:40.506Z,99.90
2023-03-07T19:48:44.239Z,99.90
2023-03-07T19:51:46.527Z,99.90
2023-03-07T19:54:53.424Z,99.90
2023-03-07T19:57:55.517Z,99.90
2023-03-07T20:00:59.290Z,99.90
2023-03-07T20:04:02.061Z,99.90
2023-03-07T20:07:04.172Z,99.90
2023-03-07T20:10:06.698Z,99.90
2023-03-07T20:13:09.105Z,99.90
2023-03-07T20:16:11.889Z,99.90
2023-03-07T20:19:14.399Z,99.90
2023-03-07T20:22:17.716Z,99.90
2023-03-07T20:25:20.862Z,99.90
2023-03-07T20:28:23.262Z,99.90
2023-03-07T20:31:25.974Z,99.90
2023-03-07T20:34:28.937Z,99.90
2023-03-07T20:37:33.917Z,99.90
2023-03-07T20:40:36.040Z,99.90
2023-03-07T20:43:38.414Z,99.90
2023-03-07T20:46:41.509Z,99.90
2023-03-07T20:49:45.579Z,99.90
2023-03-07T20:52:47.666Z,99.90
2023-03-07T20:55:50.792Z,99.90
2023-03-07T20:58:54.175Z,99.90
2023-03-07T21:01:56.412Z,99.90
2023-03-07T21:04:58.701Z,99.90
2023-03-07T21:08:01.103Z,99.90
2023-03-07T21:11:11.027Z,99.90
2023-03-07T21:14:15.383Z,99.90
2023-03-07T21:17:17.599Z,99.90
2023-03-07T21:20:20.146Z,99.90
2023-03-07T21:23:22.464Z,99.90
2023-03-07T21:26:30.346Z,99.90
2023-03-07T21:29:32.509Z,99.90
2023-03-07T21:32:34.735Z,99.90
2023-03-07T21:35:38.451Z,99.90
2023-03-07T21:38:42.459Z,99.90
2023-03-07T21:41:44.688Z,99.90
2023-03-07T21:44:46.890Z,99.90
2023-03-07T21:47:53.410Z,99.90
2023-03-07T21:50:55.671Z,99.90
2023-03-07T21:53:58.012Z,99.90
2023-03-07T21:57:00.186Z,99.90
2023-03-07T22:00:02.650Z,99.90
2023-03-07T22:03:05.043Z,99.90
2023-03-07T22:06:12.547Z,99.90
2023-03-07T22:09:15.629Z,99.90
2023-03-07T22:12:17.771Z,99.90
2023-03-07T22:15:19.927Z,99.90
2023-03-07T22:18:22.060Z,99.90
2023-03-07T22:21:27.947Z,99.90
2023-03-07T22:24:30.139Z,99.90
2023-03-07T22:27:32.525Z,99.90
2023-03-07T22:30:34.993Z,99.90
2023-03-07T22:33:37.427Z,99.90
2023-03-07T22:36:39.579Z,99.90
2023-03-07T22:39:41.723Z,99.90
2023-03-07T22:42:44.162Z,99.90
2023-03-07T22:45:50.665Z,99.90
2023-03-07T22:48:54.494Z,99.90
2023-03-07T22:51:56.888Z,99.90
2023-03-07T22:55:01.734Z,99.90
2023-03-07T22:58:05.158Z,99.90
2023-03-07T23:01:20.394Z,99.90
2023-03-07T23:04:22.702Z,99.90
2023-03-07T23:07:26.500Z,99.90
2023-03-07T23:10:30.104Z,99.90
2023-03-07T23:13:32.587Z,99.90
2023-03-07T23:16:36.569Z,99.90
2023-03-07T23:19:47.646Z,99.90
2023-03-07T23:22:50.206Z,99.90
2023-03-07T23:25:59.302Z,99.90
2023-03-07T23:29:02.459Z,99.90
2023-03-07T23:32:07.961Z,99.90
2023-03-07T23:35:19.242Z,99.90
2023-03-07T23:38:22.280Z,99.90
2023-03-07T23:41:25.227Z,99.90
2023-03-07T23:44:27.411Z,99.90
2023-03-07T23:47:29.595Z,99.90
2023-03-07T23:50:31.942Z,99.90
2023-03-07T23:53:34.142Z,99.90
2023-03-07T23:56:36.346Z,99.90
2023-03-07T23:59:38.610Z,99.90
